Latest Weather Observations for Rocky Gully South

IDW60801

Issued at 11:32 am WST Wednesday 1 June 2016 (issued every 30 minutes, with the page automatically refreshed every 10 minutes)

About weather observations | Map of weather stations | Latest weather observations for WA | Other Formats
Station Details ID: 009964 Name: ROCKY GULLY Lat: -34.57 Lon: 117.01 Height: 250.0 m
Data from the previous 72 hours. | See also: Recent months at Rocky Gully South
Date/Time
WST
Temp
°C
App
Temp
°C
Dew
Point
Rel
Hum
%
Delta-T
°C
Wind Press
QNH
hPa
Press
MSL
hPa
Rain
since 9 am
mm
Dir
 
Spd
km/h
Gust
km/h
Spd
kts
Gust
kts
01/11:30am 15.2 13.4 8.0 62 3.7 ENE 7 13 4 7 - - 0.0
01/11:00am 14.8 13.0 8.1 64 3.4 NE 7 11 4 6 - - 0.0
01/10:30am 14.2 12.7 8.4 68 2.9 NNE 6 9 3 5 - - 0.0
01/10:00am 12.8 11.3 9.3 79 1.8 NNE 7 11 4 6 - - 0.0
01/09:30am 11.1 9.7 9.4 89 0.9 NNE 7 11 4 6 - - 0.0
01/09:00am 9.2 7.7 8.3 94 0.4 NNE 6 11 3 6 - - 0.0
01/08:30am 6.2 4.4 5.3 94 0.4 N 4 6 2 3 - - 0.0
01/08:00am 3.6 0.7 2.7 94 0.4 NNE 7 7 4 4 - - 0.0
01/07:30am 4.8 3.5 3.9 94 0.4 CALM 0 6 0 3 - - 0.0
01/07:00am 4.6 2.1 3.6 93 0.4 N 6 7 3 4 - - 0.0
01/06:30am 5.7 3.4 4.8 94 0.4 N 6 7 3 4 - - 0.0
01/06:00am 4.4 1.8 3.4 93 0.4 N 6 7 3 4 - - 0.0
01/05:30am 5.3 3.3 4.3 93 0.4 N 4 7 2 4 - - 0.0
01/05:00am 5.5 3.1 4.5 93 0.4 N 6 7 3 4 - - 0.0
01/04:30am 4.7 2.2 3.7 93 0.4 N 6 6 3 3 - - 0.0
01/04:00am 4.6 2.0 3.4 92 0.5 N 6 7 3 4 - - 0.0
01/03:30am 6.2 4.7 5.2 93 0.4 NNW 2 6 1 3 - - 0.0
01/03:00am 6.1 5.0 4.9 92 0.5 CALM 0 0 0 0 - - 0.0
01/02:30am 5.7 4.1 4.5 92 0.5 NNE 2 6 1 3 - - 0.0
01/02:00am 5.7 3.7 4.5 92 0.5 N 4 9 2 5 - - 0.0
01/01:30am 6.3 4.8 5.1 92 0.5 N 2 7 1 4 - - 0.0
01/01:00am 6.5 4.1 5.3 92 0.5 NNE 7 9 4 5 - - 0.0
01/12:30am 5.7 3.2 4.5 92 0.5 NNE 7 9 4 5 - - 0.0
01/12:00am 5.5 3.0 4.0 90 0.6 NNE 6 7 3 4 - - 0.0
 
Date/Time
WST
Temp
°C
App
Temp
°C
Dew
Point
Rel
Hum
%
Delta-T
°C
Wind Press
QNH
hPa
Press
MSL
hPa
Rain
since 9 am
mm
Dir
 
Spd
km/h
Gust
km/h
Spd
kts
Gust
kts
31/11:30pm 7.0 5.6 5.6 91 0.6 NE 2 7 1 4 - - 0.0
31/11:00pm 6.4 4.1 5.0 91 0.6 NNE 6 9 3 5 - - 0.0
31/10:30pm 6.7 5.6 5.2 90 0.7 CALM 0 0 0 0 - - 0.0
31/10:00pm 7.4 6.5 5.9 90 0.7 CALM 0 0 0 0 - - 0.0
31/09:30pm 7.9 7.0 6.2 89 0.8 CALM 0 0 0 0 - - 0.0
31/09:00pm 8.5 7.8 6.8 89 0.8 CALM 0 0 0 0 - - 0.0
31/08:30pm 8.9 8.2 7.0 88 0.9 CALM 0 0 0 0 - - 0.0
31/08:00pm 9.3 8.6 7.1 86 1.0 CALM 0 0 0 0 - - 0.0
31/07:30pm 9.9 9.3 7.3 84 1.3 CALM 0 0 0 0 - - 0.0
31/07:00pm 10.5 10.0 7.9 84 1.3 CALM 0 0 0 0 - - 0.0
31/06:30pm 11.1 10.7 8.1 82 1.5 CALM 0 0 0 0 - - 0.0
31/06:00pm 11.0 10.4 7.5 79 1.7 CALM 0 0 0 0 - - 0.0
31/05:30pm 11.8 11.3 7.7 76 2.0 CALM 0 0 0 0 - - 0.0
31/05:00pm 12.7 12.2 8.0 73 2.3 CALM 0 0 0 0 - - 0.0
31/04:30pm 13.6 13.2 8.2 70 2.7 CALM 0 0 0 0 - - 0.0
31/04:00pm 14.4 14.1 8.8 69 2.9 CALM 0 0 0 0 - - 0.0
31/03:30pm 14.9 13.6 7.7 62 3.6 NNW 4 7 2 4 - - 0.0
31/03:00pm 15.2 13.3 6.7 57 4.2 NNW 6 9 3 5 - - 0.0
31/02:30pm 15.2 12.9 5.7 53 4.6 N 7 11 4 6 - - 0.0
31/02:00pm 15.1 12.9 6.1 55 4.4 WNW 7 11 4 6 - - 0.0
31/01:30pm 15.3 13.3 7.1 58 4.1 NW 7 13 4 7 - - 0.0
31/01:00pm 14.9 12.9 7.2 60 3.8 NNW 7 11 4 6 - - 0.0
31/12:30pm 14.3 12.3 6.9 61 3.6 NNW 7 11 4 6 - - 0.0
31/12:00pm 14.0 11.5 6.6 61 3.6 NW 9 13 5 7 - - 0.0
31/11:30am 13.8 11.4 6.9 63 3.4 N 9 15 5 8 - - 0.0
31/11:00am 13.1 10.6 6.5 64 3.2 N 9 17 5 9 - - 0.0
31/10:30am 12.1 9.1 6.2 67 2.8 N 11 19 6 10 - - 0.0
31/10:00am 11.0 8.5 6.6 74 2.1 N 9 15 5 8 - - 0.0
31/09:30am 9.6 7.0 6.1 79 1.6 N 9 15 5 8 - - 0.0
31/09:00am 8.2 5.6 6.2 87 0.9 N 9 13 5 7 - - 0.0
31/08:30am 6.8 4.5 5.6 92 0.5 N 7 11 4 6 - - 0.0
31/08:00am 4.3 1.7 3.3 93 0.4 N 6 7 3 4 - - 0.0
31/07:30am 4.3 2.4 3.1 92 0.5 NNE 2 6 1 3 - - 0.0
31/07:00am 4.4 1.8 3.2 92 0.5 NNE 6 7 3 4 - - 0.0
31/06:30am 4.5 1.9 3.3 92 0.5 N 6 9 3 5 - - 0.0
31/06:00am 4.1 1.3 2.9 92 0.5 N 7 9 4 5 - - 0.0
31/05:30am 3.9 1.2 2.6 91 0.5 N 6 7 3 4 - - 0.0
31/05:00am 4.5 1.9 3.2 91 0.5 N 6 7 3 4 - - 0.0
31/04:30am 5.3 2.3 4.1 92 0.5 NNE 9 13 5 7 - - 0.0
31/04:00am 4.1 1.4 2.9 92 0.5 NE 6 11 3 6 - - 0.0
31/03:30am 4.0 2.4 2.7 91 0.5 CALM 0 6 0 3 - - 0.0
31/03:00am 4.7 1.9 3.4 91 0.5 NE 7 9 4 5 - - 0.0
31/02:30am 4.9 2.3 3.4 90 0.6 NNE 6 9 3 5 - - 0.0
31/02:00am 4.9 3.5 3.4 90 0.6 CALM 0 0 0 0 - - 0.0
31/01:30am 5.3 2.8 3.6 89 0.7 NNE 6 7 3 4 - - 0.0
31/01:00am 5.5 3.0 3.8 89 0.7 NNE 6 9 3 5 - - 0.0
31/12:30am 5.4 3.6 3.6 88 0.8 NNE 2 7 1 4 - - 0.0
31/12:00am 5.9 3.4 3.7 86 0.9 NNE 6 11 3 6 - - 0.0
 
Date/Time
WST
Temp
°C
App
Temp
°C
Dew
Point
Rel
Hum
%
Delta-T
°C
Wind Press
QNH
hPa
Press
MSL
hPa
Rain
since 9 am
mm
Dir
 
Spd
km/h
Gust
km/h
Spd
kts
Gust
kts
30/11:30pm 6.5 3.9 4.2 85 1.0 NE 7 11 4 6 - - 0.0
30/11:00pm 6.1 3.9 3.3 82 1.2 NNE 4 9 2 5 - - 0.0
30/10:30pm 7.7 5.2 5.0 83 1.2 NNE 7 9 4 5 - - 0.0
30/10:00pm 6.2 3.5 3.9 85 1.0 NE 7 11 4 6 - - 0.0
30/09:30pm 6.7 4.3 4.4 85 1.0 NE 6 9 3 5 - - 0.0
30/09:00pm 7.3 5.0 4.8 84 1.1 NE 6 9 3 5 - - 0.0
30/08:30pm 7.5 5.2 4.6 82 1.3 NE 6 9 3 5 - - 0.0
30/08:00pm 8.2 6.0 5.1 81 1.4 NE 6 9 3 5 - - 0.0
30/07:30pm 8.5 6.3 5.1 79 1.5 NE 6 11 3 6 - - 0.0
30/07:00pm 8.0 5.8 5.1 82 1.3 ENE 6 7 3 4 - - 0.0
30/06:30pm 9.0 6.9 5.7 80 1.5 ENE 6 9 3 5 - - 0.0
30/06:00pm 9.2 7.4 5.6 78 1.7 ENE 4 7 2 4 - - 0.0
30/05:30pm 9.8 8.7 5.2 73 2.1 CALM 0 0 0 0 - - 0.0
30/05:00pm 11.1 9.3 5.6 69 2.6 ENE 4 6 2 3 - - 0.0
30/04:30pm 12.9 10.6 5.8 62 3.4 NNE 7 9 4 5 - - 0.0
30/04:00pm 14.1 11.9 5.5 56 4.1 NNE 6 11 3 6 - - 0.0
30/03:30pm 13.6 11.6 6.2 61 3.6 NNE 6 9 3 5 - - 0.0
30/03:00pm 14.1 11.2 4.9 54 4.3 N 9 15 5 8 - - 0.0
30/02:30pm 14.2 12.0 6.1 58 3.9 NNE 7 13 4 7 - - 0.0
30/02:00pm 14.3 11.7 6.2 58 3.9 ENE 9 15 5 8 - - 0.0
30/01:30pm 13.8 10.9 4.9 55 4.2 NE 9 17 5 9 - - 0.0
30/01:00pm 13.6 10.9 5.5 58 3.9 NE 9 15 5 8 - - 0.0
30/12:30pm 13.4 10.6 5.1 57 3.9 N 9 15 5 8 - - 0.0
30/12:00pm 13.3 10.2 5.7 60 3.6 NNE 11 17 6 9 - - 0.0
30/11:30am 13.0 10.6 5.4 60 3.6 NNE 7 13 4 7 - - 0.0
30/11:00am 12.0 9.1 4.5 60 3.5 NNE 9 15 5 8 - - 0.0
30/10:30am 11.7 8.9 5.1 64 3.1 NNE 9 15 5 8 - - 0.0
30/10:00am 11.3 8.5 5.2 66 2.8 NNE 9 15 5 8 - - 0.0
30/09:30am 10.3 8.1 5.5 72 2.2 N 6 13 3 7 - - 0.0
30/09:00am 8.9 6.9 6.9 87 0.9 E 7 11 4 6 - - 0.2
30/08:30am 7.5 5.3 6.3 92 0.6 ENE 7 9 4 5 - - 0.2
30/08:00am 5.2 2.8 4.2 93 0.4 ENE 6 9 3 5 - - 0.2
30/07:30am 3.8 1.5 2.6 92 0.5 ENE 4 7 2 4 - - 0.2
30/07:00am 4.5 1.9 3.3 92 0.5 NE 6 9 3 5 - - 0.2
30/06:30am 4.3 1.7 3.1 92 0.5 NNE 6 7 3 4 - - 0.2
30/06:00am 3.2 0.7 1.7 90 0.6 ENE 4 7 2 4 - - 0.2
30/05:30am 5.0 2.5 3.7 91 0.6 ENE 6 9 3 5 - - 0.2
30/05:00am 4.9 2.3 3.4 90 0.6 ENE 6 9 3 5 - - 0.2
30/04:30am 5.3 2.8 3.8 90 0.6 ENE 6 9 3 5 - - 0.2
30/04:00am 5.9 3.4 4.5 91 0.6 ENE 7 11 4 6 - - 0.2
30/03:30am 5.8 3.4 4.4 91 0.6 ENE 6 9 3 5 - - 0.2
30/03:00am 5.8 3.4 4.3 90 0.7 ENE 6 9 3 5 - - 0.2
30/02:30am 5.8 3.4 4.3 90 0.7 NE 6 7 3 4 - - 0.2
30/02:00am 6.0 4.0 4.2 88 0.8 NNE 4 6 2 3 - - 0.2
30/01:30am 6.5 5.3 4.7 88 0.8 CALM 0 0 0 0 - - 0.2
30/01:00am 7.4 6.4 5.5 88 0.9 CALM 0 0 0 0 - - 0.2
30/12:30am 8.4 7.6 6.5 88 0.9 CALM 0 4 0 2 - - 0.2
30/12:00am 8.7 8.0 6.8 88 0.9 CALM 0 0 0 0 - - 0.2
 
Date/Time
WST
Temp
°C
App
Temp
°C
Dew
Point
Rel
Hum
%
Delta-T
°C
Wind Press
QNH
hPa
Press
MSL
hPa
Rain
since 9 am
mm
Dir
 
Spd
km/h
Gust
km/h
Spd
kts
Gust
kts
29/11:30pm 8.8 8.1 6.9 88 0.9 CALM 0 0 0 0 - - 0.2
29/11:00pm 9.1 8.4 7.1 87 1.0 CALM 0 0 0 0 - - 0.2
29/10:30pm 9.3 8.7 7.3 87 1.0 CALM 0 0 0 0 - - 0.2
29/10:00pm 9.4 8.8 7.3 87 1.0 CALM 0 6 0 3 - - 0.2
29/09:30pm 9.4 8.8 7.5 88 0.9 CALM 0 0 0 0 - - 0.2
29/09:00pm 9.3 8.7 7.3 87 1.0 CALM 0 0 0 0 - - 0.2
29/08:30pm 9.3 8.7 7.3 87 1.0 CALM 0 0 0 0 - - 0.2
29/08:00pm 9.4 8.8 7.2 86 1.1 CALM 0 0 0 0 - - 0.2
29/07:30pm 9.6 9.0 7.4 86 1.1 CALM 0 0 0 0 - - 0.2
29/07:00pm 9.5 8.4 7.1 85 1.1 S 2 6 1 3 - - 0.2
29/06:30pm 9.7 9.0 7.0 83 1.3 CALM 0 0 0 0 - - 0.2
29/06:00pm 9.8 9.1 6.9 82 1.4 CALM 0 0 0 0 - - 0.2
29/05:30pm 10.0 8.2 7.1 82 1.4 SE 6 7 3 4 - - 0.2
29/05:00pm 10.3 9.1 6.6 78 1.8 SSW 2 6 1 3 - - 0.2
29/04:30pm 11.3 10.1 6.4 72 2.3 SSE 2 6 1 3 - - 0.2
29/04:00pm 11.7 9.5 6.4 70 2.5 SSE 7 9 4 5 - - 0.2
29/03:30pm 11.9 9.4 6.4 69 2.6 S 9 13 5 7 - - 0.2
29/03:00pm 12.3 10.3 6.4 67 2.8 SSW 6 7 3 4 - - 0.2
29/02:30pm 12.6 10.0 6.0 64 3.2 S 9 11 5 6 - - 0.2
29/02:00pm 12.3 9.7 6.1 66 3.0 S 9 13 5 7 - - 0.2
29/01:30pm 12.4 9.5 4.9 60 3.5 W 9 17 5 9 - - 0.2
29/01:00pm 11.8 9.5 5.7 66 2.9 SW 7 11 4 6 - - 0.2
29/12:30pm 12.0 9.6 6.9 71 2.5 SSW 9 15 5 8 - - 0.2
29/12:00pm 11.9 9.0 6.4 69 2.6 SSW 11 17 6 9 - - 0.2

Other Formats:

Comma delimited format used in spreadsheet applications
http://www.bom.gov.au/fwo/IDW60801/IDW60801.94631.axf

JavaScript Object Notation format (JSON) in row-major order
http://www.bom.gov.au/fwo/IDW60801/IDW60801.94631.json